Terminal Aerodrome Forecast
Issued by NWS Buffalo, NY

Home | Current Version | Previous Version | Text Only | Print | Product List | Glossary On
Versions: 1 2 3 4 5 6 7 8 9 10 11 12 13 14 15 16 17 18 19 20 21 22 23
000
FTUS41 KBUF 232340
TAFBUF
TAF
KBUF 232340Z 2400/2424 30007KT P6SM BKN045
     FM240200 30005KT P6SM SCT045
     FM241300 25005KT P6SM BKN035
     FM241600 29007KT P6SM BKN035 BKN200
     FM242200 VRB03KT P6SM BKN035 BKN200=

USA.gov is the U.S. government's official web portal to all federal, state and local government web resources and services.